createdAt,value
2018-04-23T00:01:06.311Z,18.00
2018-04-23T00:03:34.560Z,18.00
2018-04-23T00:06:02.807Z,18.10
2018-04-23T00:08:31.098Z,18.10
2018-04-23T00:11:00.100Z,18.10
2018-04-23T00:13:29.108Z,18.10
2018-04-23T00:15:57.414Z,18.10
2018-04-23T00:18:25.693Z,18.10
2018-04-23T00:20:53.981Z,18.10
2018-04-23T00:23:22.215Z,18.20
2018-04-23T00:25:50.474Z,18.10
2018-04-23T00:28:19.519Z,18.20
2018-04-23T00:30:47.767Z,18.10
2018-04-23T00:33:16.011Z,18.10
2018-04-23T00:35:44.296Z,18.10
2018-04-23T00:38:13.311Z,18.00
2018-04-23T00:40:41.600Z,18.00
2018-04-23T00:43:09.856Z,17.90
2018-04-23T00:45:38.863Z,17.90
2018-04-23T00:48:07.176Z,17.90
2018-04-23T00:50:35.460Z,17.90
2018-04-23T00:53:15.610Z,17.90
2018-04-23T00:55:43.898Z,17.90
2018-04-23T00:58:12.158Z,17.90
2018-04-23T01:00:40.400Z,17.90
2018-04-23T01:03:08.648Z,17.80
2018-04-23T01:05:36.896Z,17.90
2018-04-23T01:08:05.178Z,17.90
2018-04-23T01:10:33.458Z,17.90
2018-04-23T01:13:01.736Z,17.90
2018-04-23T01:15:29.996Z,17.80
2018-04-23T01:17:58.244Z,17.80
2018-04-23T01:20:26.526Z,17.70
2018-04-23T01:22:54.765Z,17.60
2018-04-23T01:25:23.019Z,17.50
2018-04-23T01:27:51.304Z,17.50
2018-04-23T01:30:19.571Z,17.50
2018-04-23T01:32:47.858Z,17.50
2018-04-23T01:35:16.108Z,17.40
2018-04-23T01:37:44.348Z,17.30
2018-04-23T01:40:12.645Z,17.30
2018-04-23T01:42:40.895Z,17.30
2018-04-23T01:45:09.974Z,17.30
2018-04-23T01:47:38.207Z,17.30
2018-04-23T01:50:06.460Z,17.20
2018-04-23T01:52:34.697Z,17.20
2018-04-23T01:55:03.783Z,17.10
2018-04-23T01:57:32.067Z,17.00
2018-04-23T02:00:00.342Z,16.90
2018-04-23T02:02:28.640Z,16.80
2018-04-23T02:04:57.643Z,16.70
2018-04-23T02:07:26.710Z,16.70
2018-04-23T02:09:54.951Z,16.70
2018-04-23T02:12:23.217Z,16.70
2018-04-23T02:14:51.459Z,16.60
2018-04-23T02:17:19.753Z,16.50
2018-04-23T02:19:48.762Z,16.50
2018-04-23T02:22:17.068Z,16.40
2018-04-23T02:24:45.312Z,16.40
2018-04-23T02:27:13.620Z,16.40
2018-04-23T02:29:41.899Z,16.30
2018-04-23T02:32:10.195Z,16.20
2018-04-23T02:34:38.434Z,16.20
2018-04-23T02:37:06.725Z,16.10
2018-04-23T02:39:34.973Z,16.00
2018-04-23T02:42:03.244Z,16.00
2018-04-23T02:44:31.562Z,15.90
2018-04-23T02:46:59.786Z,15.90
2018-04-23T02:49:28.819Z,15.80
2018-04-23T02:51:57.094Z,15.80
2018-04-23T02:54:25.391Z,15.80
2018-04-23T02:56:53.694Z,15.70
2018-04-23T02:59:21.935Z,15.70
2018-04-23T03:01:50.212Z,15.60
2018-04-23T03:04:18.473Z,15.50
2018-04-23T03:06:46.728Z,15.40
2018-04-23T03:09:15.789Z,15.20
2018-04-23T03:11:44.019Z,15.20
2018-04-23T03:14:12.343Z,15.10
2018-04-23T03:16:40.588Z,15.10
2018-04-23T03:19:08.873Z,15.10
2018-04-23T03:21:37.153Z,15.00
2018-04-23T03:24:05.438Z,15.10
2018-04-23T03:26:33.686Z,15.00
2018-04-23T03:29:01.935Z,15.00
2018-04-23T03:31:31.002Z,15.00
2018-04-23T03:33:59.386Z,15.00
2018-04-23T03:36:29.148Z,14.90
2018-04-23T03:38:57.404Z,15.00
2018-04-23T03:41:26.472Z,15.00
2018-04-23T03:43:54.713Z,15.00
2018-04-23T03:46:23.014Z,14.90
2018-04-23T03:48:51.256Z,14.90
2018-04-23T03:51:19.566Z,14.90
2018-04-23T03:53:47.802Z,14.90
2018-04-23T03:56:16.098Z,14.80
2018-04-23T03:58:44.399Z,14.70
2018-04-23T04:01:12.677Z,14.60
2018-04-23T04:03:40.980Z,14.60
2018-04-23T04:06:10.030Z,14.50
2018-04-23T04:08:38.332Z,14.50
2018-04-23T04:11:06.607Z,14.50
2018-04-23T04:13:46.900Z,14.50
2018-04-23T04:16:27.830Z,14.40
2018-04-23T04:18:56.126Z,14.40
2018-04-23T04:21:24.364Z,14.30
2018-04-23T04:23:52.620Z,14.30
2018-04-23T04:26:20.868Z,14.20
2018-04-23T04:28:49.104Z,14.30
2018-04-23T04:31:17.401Z,14.20
2018-04-23T04:33:45.689Z,14.20
2018-04-23T04:36:13.947Z,14.20
2018-04-23T04:38:42.236Z,14.30
2018-04-23T04:41:10.484Z,14.30
2018-04-23T04:43:38.780Z,14.30
2018-04-23T04:46:07.022Z,14.30
2018-04-23T04:48:35.316Z,14.30
2018-04-23T04:51:04.467Z,14.20
2018-04-23T04:53:33.473Z,14.20
2018-04-23T04:56:02.526Z,14.20
2018-04-23T04:58:30.786Z,14.20
2018-04-23T05:00:59.040Z,14.30
2018-04-23T05:03:27.326Z,14.30
2018-04-23T05:05:55.667Z,14.30
2018-04-23T05:08:23.939Z,14.30
2018-04-23T05:10:52.990Z,14.50
2018-04-23T05:13:21.264Z,14.50
2018-04-23T05:15:49.558Z,14.50
2018-04-23T05:18:17.849Z,14.50
2018-04-23T05:20:46.134Z,14.60
2018-04-23T05:23:14.376Z,14.70
2018-04-23T05:25:42.640Z,14.80
2018-04-23T05:28:10.886Z,14.90
2018-04-23T05:30:39.908Z,15.10
2018-04-23T05:33:08.203Z,15.00
2018-04-23T05:35:36.464Z,15.10
2018-04-23T05:38:04.739Z,15.20
2018-04-23T05:40:32.987Z,15.30
2018-04-23T05:43:02.007Z,15.40
2018-04-23T05:45:30.337Z,15.40
2018-04-23T05:47:58.591Z,15.40
2018-04-23T05:50:26.836Z,15.50
2018-04-23T05:52:55.143Z,15.60
2018-04-23T05:55:23.415Z,15.70
2018-04-23T05:57:51.701Z,15.80
2018-04-23T06:00:19.987Z,15.90
2018-04-23T06:02:48.296Z,16.00
2018-04-23T06:05:17.344Z,16.10
2018-04-23T06:07:45.571Z,16.10
2018-04-23T06:10:14.624Z,16.30
2018-04-23T06:12:46.712Z,16.30
2018-04-23T06:15:18.099Z,16.30
2018-04-23T06:17:47.149Z,16.50
2018-04-23T06:20:15.391Z,16.40
2018-04-23T06:22:43.912Z,16.50
2018-04-23T06:25:12.175Z,16.60
2018-04-23T06:27:40.419Z,16.70
2018-04-23T06:30:08.739Z,16.80
2018-04-23T06:32:36.963Z,16.90
2018-04-23T06:35:05.231Z,17.00
2018-04-23T06:37:33.533Z,17.00
2018-04-23T06:40:01.787Z,17.20
2018-04-23T06:42:30.036Z,17.30
2018-04-23T06:44:58.293Z,17.40
2018-04-23T06:47:26.570Z,17.50
2018-04-23T06:49:54.912Z,17.60
2018-04-23T06:52:23.195Z,17.70
2018-04-23T06:54:51.433Z,17.80
2018-04-23T06:57:20.472Z,18.00
2018-04-23T06:59:48.732Z,18.00
2018-04-23T07:02:17.035Z,18.10
2018-04-23T07:04:45.359Z,18.20
2018-04-23T07:07:13.611Z,18.20
2018-04-23T07:09:41.838Z,18.40
2018-04-23T07:12:10.144Z,18.50
2018-04-23T07:14:38.443Z,18.60
2018-04-23T07:17:08.232Z,18.70
2018-04-23T07:19:36.537Z,18.70
2018-04-23T07:22:04.767Z,18.90
2018-04-23T07:24:33.075Z,18.90
2018-04-23T07:27:01.329Z,19.10
2018-04-23T07:29:29.875Z,19.20
2018-04-23T07:31:58.888Z,19.40
2018-04-23T07:34:27.158Z,19.40
2018-04-23T07:36:56.203Z,19.70
2018-04-23T07:39:24.484Z,19.60
2018-04-23T07:41:52.763Z,19.80
2018-04-23T07:44:21.043Z,19.80
2018-04-23T07:46:49.634Z,20.00
2018-04-23T07:49:17.871Z,20.10
2018-04-23T07:51:46.462Z,20.20
2018-04-23T07:54:14.736Z,20.30
2018-04-23T07:56:42.978Z,20.40
2018-04-23T07:59:12.023Z,20.50
2018-04-23T08:01:40.323Z,20.50
2018-04-23T08:04:08.603Z,20.60
2018-04-23T08:06:37.767Z,20.60
2018-04-23T08:09:06.656Z,20.70
2018-04-23T08:11:34.936Z,20.80
2018-04-23T08:14:03.175Z,20.80
2018-04-23T08:16:31.436Z,20.80
2018-04-23T08:19:00.507Z,21.00
2018-04-23T08:21:28.866Z,20.90
2018-04-23T08:23:57.138Z,21.10
2018-04-23T08:26:25.429Z,21.20
2018-04-23T08:28:53.690Z,21.20
2018-04-23T08:31:21.923Z,21.30
2018-04-23T08:33:51.007Z,21.40
2018-04-23T08:36:19.282Z,21.40
2018-04-23T08:38:47.544Z,21.50
2018-04-23T08:41:15.773Z,21.60
2018-04-23T08:43:44.075Z,21.60
2018-04-23T08:46:12.335Z,21.70
2018-04-23T08:48:40.627Z,21.80
2018-04-23T08:51:08.907Z,21.90
2018-04-23T08:53:37.202Z,22.00
2018-04-23T08:56:05.435Z,22.20
2018-04-23T08:58:33.726Z,22.30
2018-04-23T09:01:02.004Z,22.50
2018-04-23T09:03:30.240Z,22.60
2018-04-23T09:05:59.271Z,22.90
2018-04-23T09:08:27.523Z,22.80
2018-04-23T09:10:56.583Z,23.00
2018-04-23T09:13:24.827Z,22.90
2018-04-23T09:15:53.079Z,22.90
2018-04-23T09:18:21.357Z,22.80
2018-04-23T09:20:49.631Z,22.80
2018-04-23T09:23:17.911Z,22.70
2018-04-23T09:25:46.197Z,22.70
2018-04-23T09:28:14.491Z,22.60
2018-04-23T09:30:42.723Z,22.60
2018-04-23T09:33:11.750Z,22.50
2018-04-23T09:35:40.000Z,22.50
2018-04-23T09:38:09.062Z,22.60
2018-04-23T09:40:37.341Z,22.60
2018-04-23T09:43:05.639Z,22.50
2018-04-23T09:45:33.881Z,22.40
2018-04-23T09:48:02.208Z,22.40
2018-04-23T09:50:31.212Z,22.20
2018-04-23T09:52:59.476Z,22.20
2018-04-23T09:55:28.525Z,22.10
2018-04-23T09:57:56.789Z,22.10
2018-04-23T10:00:35.497Z,21.90
2018-04-23T10:03:07.726Z,21.80
2018-04-23T10:05:36.781Z,21.30
2018-04-23T10:08:05.049Z,21.30
2018-04-23T10:10:33.342Z,21.10
2018-04-23T10:13:01.613Z,20.90
2018-04-23T10:15:29.866Z,20.70
2018-04-23T10:17:58.111Z,20.40
2018-04-23T10:20:27.179Z,19.80
2018-04-23T10:22:55.460Z,19.80
2018-04-23T10:25:23.717Z,19.50
2018-04-23T10:27:52.010Z,19.20
2018-04-23T10:30:20.302Z,18.90
2018-04-23T10:32:48.546Z,18.60
2018-04-23T10:35:16.834Z,18.40
2018-04-23T10:37:45.112Z,18.20
2018-04-23T10:40:13.363Z,18.20
2018-04-23T10:42:41.655Z,18.10
2018-04-23T10:45:09.937Z,18.10
2018-04-23T10:47:38.184Z,18.10
2018-04-23T10:50:06.426Z,18.00
2018-04-23T10:52:34.735Z,18.00
2018-04-23T10:55:02.992Z,17.90
2018-04-23T10:57:32.055Z,17.80
2018-04-23T11:00:00.345Z,17.70
2018-04-23T11:02:28.635Z,17.70
2018-04-23T11:04:56.880Z,17.80
2018-04-23T11:07:25.140Z,17.80
2018-04-23T11:09:53.428Z,17.70
2018-04-23T11:12:21.700Z,17.70
2018-04-23T11:14:49.951Z,17.70
2018-04-23T11:17:18.243Z,17.70
2018-04-23T11:19:46.554Z,17.80
2018-04-23T11:22:16.307Z,17.80
2018-04-23T11:24:45.424Z,17.90
2018-04-23T11:27:14.443Z,17.90
2018-04-23T11:29:42.734Z,17.90
2018-04-23T11:32:11.014Z,17.90
2018-04-23T11:34:39.316Z,17.90
2018-04-23T11:37:08.362Z,18.00
2018-04-23T11:39:36.657Z,18.00
2018-04-23T11:42:04.905Z,18.10
2018-04-23T11:44:33.221Z,18.10
2018-04-23T11:47:01.508Z,18.10
2018-04-23T11:49:29.775Z,18.10
2018-04-23T11:51:59.580Z,18.00
2018-04-23T11:54:27.858Z,18.00
2018-04-23T11:56:56.146Z,18.10
2018-04-23T11:59:25.922Z,18.20
2018-04-23T12:01:54.240Z,18.20
2018-04-23T12:04:22.507Z,18.20
2018-04-23T12:06:50.762Z,18.30
2018-04-23T12:09:19.066Z,18.40
2018-04-23T12:11:47.362Z,18.50
2018-04-23T12:14:16.405Z,18.40
2018-04-23T12:16:44.684Z,18.40
2018-04-23T12:19:12.965Z,18.50
2018-04-23T12:21:41.284Z,18.50
2018-04-23T12:24:09.509Z,18.60
2018-04-23T12:26:37.802Z,18.60
2018-04-23T12:29:06.038Z,18.70
2018-04-23T12:31:34.279Z,18.90
2018-04-23T12:34:02.580Z,19.00
2018-04-23T12:36:31.581Z,19.60
2018-04-23T12:38:59.883Z,19.60
2018-04-23T12:41:28.129Z,20.00
2018-04-23T12:43:57.142Z,20.50
2018-04-23T12:46:25.393Z,20.50
2018-04-23T12:48:54.449Z,20.90
2018-04-23T12:51:22.741Z,20.90
2018-04-23T12:53:51.000Z,21.20
2018-04-23T12:56:19.231Z,21.40
2018-04-23T12:58:47.514Z,21.60
2018-04-23T13:01:15.785Z,21.80
2018-04-23T13:03:44.787Z,22.00
2018-04-23T13:06:13.039Z,21.90
2018-04-23T13:08:42.061Z,21.90
2018-04-23T13:11:10.314Z,21.90
2018-04-23T13:13:39.359Z,22.00
2018-04-23T13:16:07.680Z,22.00
2018-04-23T13:18:35.959Z,22.10
2018-04-23T13:21:04.253Z,22.30
2018-04-23T13:23:33.266Z,22.30
2018-04-23T13:26:01.564Z,22.20
2018-04-23T13:28:29.864Z,22.20
2018-04-23T13:30:58.138Z,22.30
2018-04-23T13:33:26.375Z,22.40
2018-04-23T13:35:54.605Z,22.50
2018-04-23T13:38:22.923Z,22.40
2018-04-23T13:40:51.209Z,22.40
2018-04-23T13:43:19.461Z,22.40
2018-04-23T13:45:48.471Z,22.50
2018-04-23T13:48:16.736Z,22.50
2018-04-23T13:50:45.740Z,22.70
2018-04-23T13:53:14.056Z,22.70
2018-04-23T13:55:42.329Z,22.80
2018-04-23T13:58:10.581Z,22.80
2018-04-23T14:00:38.858Z,22.80
2018-04-23T14:03:07.173Z,22.90
2018-04-23T14:05:35.411Z,22.80
2018-04-23T14:08:03.690Z,22.60
2018-04-23T14:10:31.944Z,22.50
2018-04-23T14:13:00.235Z,22.40
2018-04-23T14:15:28.492Z,22.30
2018-04-23T14:17:57.539Z,22.10
2018-04-23T14:20:25.795Z,22.00
2018-04-23T14:22:54.088Z,21.90
2018-04-23T14:25:22.369Z,21.80
2018-04-23T14:27:50.607Z,21.70
2018-04-23T14:30:19.926Z,21.70
2018-04-23T14:32:48.237Z,21.60
2018-04-23T14:35:16.524Z,21.50
2018-04-23T14:37:44.758Z,21.40
2018-04-23T14:40:13.057Z,21.30
2018-04-23T14:42:41.285Z,21.30
2018-04-23T14:45:10.360Z,21.30
2018-04-23T14:47:39.412Z,21.30
2018-04-23T14:50:07.668Z,21.30
2018-04-23T14:52:35.926Z,21.30
2018-04-23T14:55:04.211Z,21.40
2018-04-23T14:57:33.261Z,21.50
2018-04-23T15:00:01.512Z,21.50
2018-04-23T15:02:29.805Z,21.60
2018-04-23T15:04:58.051Z,21.80
2018-04-23T15:07:26.331Z,22.10
2018-04-23T15:09:54.635Z,22.30
2018-04-23T15:12:22.917Z,22.60
2018-04-23T15:14:51.153Z,22.60
2018-04-23T15:17:19.494Z,22.70
2018-04-23T15:19:47.751Z,22.70
2018-04-23T15:22:16.045Z,22.80
2018-04-23T15:24:44.291Z,22.80
2018-04-23T15:27:12.555Z,22.70
2018-04-23T15:29:40.799Z,22.90
2018-04-23T15:32:09.815Z,22.90
2018-04-23T15:34:38.108Z,22.80
2018-04-23T15:37:06.354Z,22.90
2018-04-23T15:39:34.619Z,23.00
2018-04-23T15:42:03.686Z,22.80
2018-04-23T15:44:31.963Z,22.80
2018-04-23T15:47:00.258Z,22.70
2018-04-23T15:49:28.554Z,22.60
2018-04-23T15:51:57.568Z,22.60
2018-04-23T15:54:25.857Z,22.60
2018-04-23T15:56:54.096Z,22.60
2018-04-23T15:59:23.165Z,22.50
2018-04-23T16:01:51.454Z,22.50
2018-04-23T16:04:21.203Z,22.60
2018-04-23T16:06:49.457Z,22.60
2018-04-23T16:09:17.718Z,22.70
2018-04-23T16:11:45.988Z,22.70
2018-04-23T16:14:14.250Z,22.80
2018-04-23T16:16:42.546Z,22.90
2018-04-23T16:19:10.853Z,22.80
2018-04-23T16:21:39.860Z,22.70
2018-04-23T16:24:08.167Z,22.60
2018-04-23T16:26:36.402Z,22.60
2018-04-23T16:29:05.466Z,22.60
2018-04-23T16:31:33.722Z,22.60
2018-04-23T16:34:02.014Z,22.60
2018-04-23T16:36:30.300Z,22.60
2018-04-23T16:38:58.536Z,22.60
2018-04-23T16:41:26.911Z,22.40
2018-04-23T16:43:55.191Z,22.40
2018-04-23T16:46:23.451Z,22.30
2018-04-23T16:48:51.740Z,22.30
2018-04-23T16:51:20.001Z,22.20
2018-04-23T16:53:48.249Z,22.20
2018-04-23T16:56:16.538Z,22.10
2018-04-23T16:58:45.596Z,22.00
2018-04-23T17:01:13.892Z,21.90
2018-04-23T17:03:42.173Z,21.90
2018-04-23T17:06:10.449Z,21.80
2018-04-23T17:08:38.709Z,21.80
2018-04-23T17:11:06.939Z,21.70
2018-04-23T17:13:35.354Z,21.60
2018-04-23T17:16:03.602Z,21.60
2018-04-23T17:18:31.898Z,21.50
2018-04-23T17:21:00.185Z,21.40
2018-04-23T17:23:28.478Z,21.40
2018-04-23T17:25:57.295Z,21.30
2018-04-23T17:28:26.318Z,21.30
2018-04-23T17:30:54.564Z,21.20
2018-04-23T17:33:23.626Z,21.10
2018-04-23T17:35:51.931Z,21.10
2018-04-23T17:38:20.956Z,21.00
2018-04-23T17:40:50.020Z,20.80
2018-04-23T17:43:18.251Z,20.80
2018-04-23T17:45:46.559Z,20.80
2018-04-23T17:48:15.960Z,20.70
2018-04-23T17:50:44.217Z,20.60
2018-04-23T17:53:13.368Z,20.50
2018-04-23T17:55:42.465Z,20.30
2018-04-23T17:58:12.337Z,20.20
2018-04-23T18:00:40.614Z,20.20
2018-04-23T18:03:08.879Z,20.10
2018-04-23T18:05:37.163Z,20.00
2018-04-23T18:08:05.429Z,19.90
2018-04-23T18:10:33.685Z,19.90
2018-04-23T18:13:01.987Z,19.90
2018-04-23T18:15:30.239Z,19.90
2018-04-23T18:17:58.516Z,19.90
2018-04-23T18:20:26.766Z,19.80
2018-04-23T18:22:55.850Z,19.60
2018-04-23T18:25:24.113Z,19.60
2018-04-23T18:27:52.377Z,19.60
2018-04-23T18:30:20.653Z,19.50
2018-04-23T18:32:48.952Z,19.40
2018-04-23T18:35:17.261Z,19.30
2018-04-23T18:37:46.320Z,19.20
2018-04-23T18:40:14.590Z,19.10
2018-04-23T18:42:42.877Z,19.10
2018-04-23T18:45:11.173Z,19.10
2018-04-23T18:47:39.409Z,19.00
2018-04-23T18:50:07.709Z,19.00
2018-04-23T18:52:35.998Z,18.90
2018-04-23T18:55:04.308Z,18.90
2018-04-23T18:57:33.353Z,18.80
2018-04-23T19:00:01.621Z,18.70
2018-04-23T19:02:29.880Z,18.80
2018-04-23T19:04:58.140Z,18.80
2018-04-23T19:07:26.455Z,18.80
2018-04-23T19:09:54.722Z,18.80
2018-04-23T19:12:22.987Z,18.70
2018-04-23T19:14:51.316Z,18.70
2018-04-23T19:17:19.567Z,18.70
2018-04-23T19:19:48.039Z,18.60
2018-04-23T19:22:16.308Z,18.60
2018-04-23T19:24:44.566Z,18.50
2018-04-23T19:27:12.842Z,18.50
2018-04-23T19:29:41.151Z,18.50
2018-04-23T19:32:09.415Z,18.50
2018-04-23T19:34:37.720Z,18.50
2018-04-23T19:37:06.018Z,18.40
2018-04-23T19:39:34.276Z,18.40
2018-04-23T19:42:02.575Z,18.30
2018-04-23T19:44:31.591Z,18.20
2018-04-23T19:46:59.919Z,18.20
2018-04-23T19:49:29.013Z,18.10
2018-04-23T19:51:57.271Z,18.00
2018-04-23T19:54:25.519Z,18.00
2018-04-23T19:56:53.826Z,17.90
2018-04-23T19:59:22.068Z,17.80
2018-04-23T20:01:50.356Z,17.80
2018-04-23T20:04:18.611Z,17.70
2018-04-23T20:06:47.755Z,17.60
2018-04-23T20:09:16.799Z,17.50
2018-04-23T20:11:45.971Z,17.50
2018-04-23T20:14:14.233Z,17.50
2018-04-23T20:16:42.514Z,17.50
2018-04-23T20:19:10.813Z,17.40
2018-04-23T20:21:39.064Z,17.40
2018-04-23T20:24:07.376Z,17.30
2018-04-23T20:26:35.627Z,17.30
2018-04-23T20:29:03.934Z,17.30
2018-04-23T20:31:32.205Z,17.30
2018-04-23T20:34:00.514Z,17.20
2018-04-23T20:36:28.775Z,17.20
2018-04-23T20:38:57.021Z,17.10
2018-04-23T20:41:25.332Z,17.00
2018-04-23T20:43:54.336Z,16.90
2018-04-23T20:46:22.652Z,16.90
2018-04-23T20:48:50.898Z,16.80
2018-04-23T20:51:19.205Z,16.80
2018-04-23T20:53:47.448Z,16.70
2018-04-23T20:56:15.742Z,16.60
2018-04-23T20:58:43.986Z,16.60
2018-04-23T21:01:13.027Z,16.50
2018-04-23T21:03:41.280Z,16.50
2018-04-23T21:06:09.522Z,16.40
2018-04-23T21:08:38.566Z,16.30
2018-04-23T21:11:06.865Z,16.30
2018-04-23T21:13:36.679Z,16.20
2018-04-23T21:16:04.982Z,16.20
2018-04-23T21:18:34.773Z,16.10
2018-04-23T21:21:03.039Z,16.00
2018-04-23T21:23:31.334Z,16.00
2018-04-23T21:25:59.706Z,15.90
2018-04-23T21:28:27.867Z,15.90
2018-04-23T21:30:56.114Z,15.80
2018-04-23T21:33:24.386Z,15.70
2018-04-23T21:35:52.674Z,15.70
2018-04-23T21:38:20.924Z,15.60
2018-04-23T21:40:49.944Z,15.50
2018-04-23T21:43:18.236Z,15.50
2018-04-23T21:45:46.495Z,15.40
2018-04-23T21:48:14.744Z,15.40
2018-04-23T21:50:43.812Z,15.30
2018-04-23T21:53:12.049Z,15.30
2018-04-23T21:55:40.318Z,15.20
2018-04-23T21:58:09.361Z,15.10
2018-04-23T22:00:37.631Z,15.10
2018-04-23T22:03:05.872Z,15.10
2018-04-23T22:05:34.159Z,15.00
2018-04-23T22:08:02.440Z,15.00
2018-04-23T22:10:30.700Z,14.90
2018-04-23T22:12:59.000Z,14.80
2018-04-23T22:15:27.310Z,14.80
2018-04-23T22:17:55.621Z,14.70
2018-04-23T22:20:24.666Z,14.70
2018-04-23T22:22:52.953Z,14.70
2018-04-23T22:25:21.230Z,14.70
2018-04-23T22:27:49.493Z,14.80
2018-04-23T22:30:17.734Z,14.80
2018-04-23T22:32:45.988Z,14.80
2018-04-23T22:35:14.991Z,14.80
2018-04-23T22:37:43.260Z,14.70
2018-04-23T22:40:12.267Z,14.70
2018-04-23T22:42:41.291Z,14.70
2018-04-23T22:45:09.585Z,14.70
2018-04-23T22:47:37.897Z,14.70
2018-04-23T22:50:06.966Z,14.50
2018-04-23T22:52:35.235Z,14.50
2018-04-23T22:55:03.518Z,14.50
2018-04-23T22:57:31.770Z,14.50
2018-04-23T23:00:00.030Z,14.50
2018-04-23T23:02:28.283Z,14.40
2018-04-23T23:04:57.311Z,14.40
2018-04-23T23:07:25.553Z,14.40
2018-04-23T23:09:54.578Z,14.40
2018-04-23T23:12:22.865Z,14.40
2018-04-23T23:14:51.115Z,14.40
2018-04-23T23:17:20.141Z,14.40
2018-04-23T23:19:48.414Z,14.40
2018-04-23T23:22:16.698Z,14.40
2018-04-23T23:24:45.011Z,14.40
2018-04-23T23:27:13.288Z,14.40
2018-04-23T23:29:41.525Z,14.40
2018-04-23T23:32:09.827Z,14.40
2018-04-23T23:34:38.060Z,14.40
2018-04-23T23:37:06.320Z,14.40
2018-04-23T23:39:35.328Z,14.50
2018-04-23T23:42:03.649Z,14.40
2018-04-23T23:44:31.926Z,14.50
2018-04-23T23:47:00.235Z,14.40
2018-04-23T23:49:29.983Z,14.40
2018-04-23T23:51:58.269Z,14.40
2018-04-23T23:54:26.581Z,14.50
2018-04-23T23:56:54.810Z,14.50
2018-04-23T23:59:23.118Z,14.40
